Time;durP1;ratioP1;P1;durP2;ratioP2;P2;SDS_P1;SDS_P2;PMS_P1;PMS_P2;Temp;Humidity;BMP_temperature;BMP_pressure;BME280_temperature;BME280_humidity;BME280_pressure;Samples;Min_cycle;Max_cycle;Signal;HPM_P1;HPM_P2
2022/11/13 00:01:46;;;;;;;3.57;3.27;;;;;;;22.14;38.36;96430.00;6173191;28;104090;-82
2022/11/13 00:04:49;;;;;;;3.20;3.00;;;;;;;22.13;38.03;96431.06;6172253;28;103110;-81
2022/11/13 00:07:52;;;;;;;3.53;3.27;;;;;;;22.13;38.37;96423.88;6171166;28;107602;-84
2022/11/13 00:11:01;;;;;;;3.27;3.03;;;;;;;22.10;38.39;96419.88;6171236;28;104186;-82
2022/11/13 00:14:06;;;;;;;3.53;3.33;;;;;;;22.10;38.07;96417.22;6173585;28;103572;-82
2022/11/13 00:17:09;;;;;;;3.90;3.30;;;;;;;22.13;38.48;96420.41;6173016;28;107486;-82
2022/11/13 00:20:12;;;;;;;3.60;3.17;;;;;;;22.14;38.52;96416.66;6167062;28;104938;-82
2022/11/13 00:23:15;;;;;;;3.80;3.50;;;;;;;22.13;38.04;96417.75;6172410;28;105549;-81
2022/11/13 00:26:21;;;;;;;3.60;3.30;;;;;;;22.09;37.95;96410.28;6173464;28;104043;-82
2022/11/13 00:29:26;;;;;;;4.00;3.70;;;;;;;22.13;38.06;96410.53;6172441;28;103699;-82
2022/11/13 00:32:29;;;;;;;3.30;3.10;;;;;;;22.11;38.40;96408.16;6165932;28;103027;-82
2022/11/13 00:35:32;;;;;;;3.10;2.90;;;;;;;22.15;38.55;96410.25;6171991;28;104328;-82
2022/11/13 00:38:35;;;;;;;3.20;3.00;;;;;;;22.14;38.39;96403.34;6172575;28;106284;-82
2022/11/13 00:41:38;;;;;;;3.30;3.10;;;;;;;22.14;38.37;96400.66;6172575;28;103855;-82
2022/11/13 00:44:43;;;;;;;3.43;3.13;;;;;;;22.09;38.11;96402.28;6165286;28;106322;-82
2022/11/13 00:47:46;;;;;;;3.10;2.90;;;;;;;22.13;38.10;96394.53;6172804;28;103017;-82
2022/11/13 00:50:50;;;;;;;3.37;3.17;;;;;;;22.08;38.00;96386.56;6172571;28;106568;-82
2022/11/13 00:53:53;;;;;;;3.77;3.47;;;;;;;22.11;38.37;96396.69;6168790;28;104607;-82
2022/11/13 00:56:56;;;;;;;3.00;2.80;;;;;;;22.13;38.31;96394.53;6170961;28;104112;-82
2022/11/13 01:00:00;;;;;;;3.20;2.90;;;;;;;22.14;38.49;96398.00;6172710;28;103322;-82
2022/11/13 01:03:04;;;;;;;3.20;3.00;;;;;;;22.13;37.95;96391.06;6173051;28;102990;-82
2022/11/13 01:06:12;;;;;;;2.90;2.70;;;;;;;22.13;38.08;96389.22;6166313;28;103137;-82
2022/11/13 01:09:15;;;;;;;3.10;2.90;;;;;;;22.13;38.09;96399.06;6172804;28;104411;-82
2022/11/13 01:12:18;;;;;;;3.03;2.83;;;;;;;22.09;37.97;96388.97;6172368;28;104170;-82
2022/11/13 01:15:23;;;;;;;3.33;3.13;;;;;;;22.07;37.96;96393.78;6171601;28;103430;-82
2022/11/13 01:18:26;;;;;;;3.10;2.90;;;;;;;22.11;38.19;96391.34;6165369;28;102898;-82
2022/11/13 01:21:30;;;;;;;3.20;3.00;;;;;;;22.10;38.15;96390.56;6173196;28;103396;-82
2022/11/13 01:24:33;;;;;;;3.23;3.00;;;;;;;22.12;38.57;96384.94;6172607;28;104198;-82
2022/11/13 01:27:37;;;;;;;3.10;2.90;;;;;;;22.14;38.22;96384.66;6170466;28;102546;-81
2022/11/13 01:30:42;;;;;;;3.67;3.37;;;;;;;22.13;38.23;96389.22;6169339;28;103226;-82
2022/11/13 01:33:46;;;;;;;3.20;3.00;;;;;;;22.14;38.36;96379.34;6172532;28;104187;-82
2022/11/13 01:36:49;;;;;;;2.90;2.70;;;;;;;22.10;38.38;96377.22;6170670;28;102696;-81
2022/11/13 01:39:53;;;;;;;2.80;2.60;;;;;;;22.11;38.01;96370.81;6164376;28;103468;-81
2022/11/13 01:42:56;;;;;;;3.20;3.00;;;;;;;22.11;38.10;96370.81;6171925;28;104460;-81
2022/11/13 01:46:21;;;;;;;2.90;2.70;;;;;;;22.11;38.37;96370.81;6171015;28;102722;-80
2022/11/13 01:49:31;;;;;;;3.30;3.10;;;;;;;22.13;38.57;96375.09;6171357;28;103524;-81
2022/11/13 01:52:38;;;;;;;3.07;2.87;;;;;;;22.07;37.96;96359.13;6164407;28;103368;-81
2022/11/13 01:55:41;;;;;;;3.30;3.10;;;;;;;22.13;38.31;96367.09;6171845;28;103366;-80
2022/11/13 01:58:51;;;;;;;3.40;3.10;;;;;;;22.16;38.02;96358.53;6171803;28;103371;-81
2022/11/13 02:01:56;;;;;;;3.50;3.20;;;;;;;22.15;37.84;96370.28;6167571;28;104465;-82
2022/11/13 02:05:01;;;;;;;2.90;2.70;;;;;;;22.16;38.46;96371.88;6167277;28;103278;-82
2022/11/13 02:08:04;;;;;;;3.00;2.80;;;;;;;22.13;38.15;96372.41;6169796;28;103188;-82
2022/11/13 02:11:08;;;;;;;2.83;2.63;;;;;;;22.11;38.39;96368.16;6171251;28;102569;-82
2022/11/13 02:14:13;;;;;;;3.17;2.97;;;;;;;22.16;38.43;96377.19;6164570;28;104207;-81
2022/11/13 02:17:23;;;;;;;3.20;3.00;;;;;;;22.14;38.11;96374.00;6171123;28;104073;-81
2022/11/13 02:20:32;;;;;;;3.00;2.80;;;;;;;22.14;38.55;96374.00;6170952;28;103052;-82
2022/11/13 02:23:43;;;;;;;3.20;2.97;;;;;;;22.13;38.10;96375.09;6171498;28;104128;-82
2022/11/13 02:26:50;;;;;;;3.23;3.03;;;;;;;22.13;37.94;96364.41;6169694;28;103735;-82
2022/11/13 02:29:54;;;;;;;3.03;2.80;;;;;;;22.14;38.35;96368.69;6176132;28;105548;-82
2022/11/13 02:32:58;;;;;;;2.60;2.40;;;;;;;22.14;38.44;96374.00;6175680;28;104268;-82
2022/11/13 02:36:02;;;;;;;3.00;2.80;;;;;;;22.16;37.95;96366.53;6171697;28;104062;-82
2022/11/13 02:39:08;;;;;;;3.00;2.80;;;;;;;22.15;38.39;96364.94;6172346;28;103436;-82
2022/11/13 02:42:13;;;;;;;3.00;2.80;;;;;;;22.14;38.45;96358.00;6173489;28;102793;-81
2022/11/13 02:45:16;;;;;;;3.40;3.10;;;;;;;22.09;38.33;96350.84;6173175;28;103521;-81
2022/11/13 02:48:19;;;;;;;3.23;3.03;;;;;;;22.15;37.99;96360.41;6168332;28;105293;-81
2022/11/13 02:51:22;;;;;;;3.10;2.90;;;;;;;22.13;38.23;96359.88;6174572;28;103386;-82
2022/11/13 02:54:26;;;;;;;3.03;2.80;;;;;;;22.14;38.26;96364.13;6175582;28;103422;-82
2022/11/13 02:57:30;;;;;;;3.87;3.57;;;;;;;22.16;37.74;96366.53;6176350;28;104957;-82
2022/11/13 03:00:34;;;;;;;3.30;3.00;;;;;;;22.16;38.50;96371.88;6169805;28;103509;-82
2022/11/13 03:03:37;;;;;;;2.90;2.70;;;;;;;22.15;38.07;96376.41;6175921;28;102760;-81
2022/11/13 03:06:59;;;;;;;2.73;2.53;;;;;;;22.15;38.13;96376.41;6175374;28;103038;-82
2022/11/13 03:10:03;;;;;;;3.20;2.97;;;;;;;22.16;38.19;96374.53;6172415;28;103270;-82
2022/11/13 03:13:07;;;;;;;3.20;3.00;;;;;;;22.16;37.90;96382.53;6173171;28;104732;-82
2022/11/13 03:16:12;;;;;;;3.00;2.80;;;;;;;22.15;38.30;96378.25;6175196;28;103824;-81
2022/11/13 03:19:16;;;;;;;3.10;2.90;;;;;;;22.18;37.94;96377.72;6174823;28;106230;-81
2022/11/13 03:22:19;;;;;;;3.10;2.90;;;;;;;22.17;38.15;96384.91;6168933;28;104043;-81
2022/11/13 03:25:22;;;;;;;3.13;2.93;;;;;;;22.16;38.25;96382.53;6174893;28;103157;-81
2022/11/13 03:28:27;;;;;;;3.03;2.83;;;;;;;22.17;38.51;96382.25;6175280;28;104011;-81
2022/11/13 03:31:31;;;;;;;2.90;2.70;;;;;;;22.16;38.11;96378.00;6174238;28;103151;-82
2022/11/13 03:34:34;;;;;;;2.73;2.53;;;;;;;22.17;37.97;96379.59;6169748;28;104287;-83
2022/11/13 03:37:37;;;;;;;2.90;2.70;;;;;;;22.18;38.21;96391.88;6173897;28;103768;-80
2022/11/13 03:40:41;;;;;;;2.93;2.73;;;;;;;22.08;38.32;96371.38;6174192;28;106857;-82
2022/11/13 03:43:46;;;;;;;2.73;2.53;;;;;;;22.17;38.11;96378.78;6171632;28;104268;-82
2022/11/13 03:46:49;;;;;;;3.10;2.90;;;;;;;22.22;37.71;96392.13;6170474;28;104104;-82
2022/11/13 03:49:52;;;;;;;2.73;2.53;;;;;;;22.18;38.10;96391.03;6174256;28;102909;-81
2022/11/13 03:52:56;;;;;;;3.13;2.93;;;;;;;22.17;38.15;96384.91;6174045;28;103393;-81
2022/11/13 03:55:59;;;;;;;3.00;2.80;;;;;;;22.16;38.23;96382.53;6167585;28;103453;-81
2022/11/13 03:59:04;;;;;;;3.13;2.93;;;;;;;22.18;37.97;96385.72;6174460;28;103761;-81
2022/11/13 04:02:07;;;;;;;2.87;2.67;;;;;;;22.18;38.15;96383.88;6173428;28;106325;-81
2022/11/13 04:05:10;;;;;;;2.37;2.20;;;;;;;22.15;38.07;96373.72;6173290;28;104339;-82
2022/11/13 04:08:13;;;;;;;3.20;3.00;;;;;;;22.18;38.28;96385.72;6167144;28;104516;-80
2022/11/13 04:11:16;;;;;;;3.00;2.80;;;;;;;22.17;38.33;96384.13;6170978;28;103305;-80
2022/11/13 04:14:21;;;;;;;2.80;2.60;;;;;;;22.18;38.11;96385.72;6170659;28;103051;-80
2022/11/13 04:17:24;;;;;;;3.00;2.80;;;;;;;22.17;38.46;96390.25;6170951;28;104646;-80
2022/11/13 04:20:28;;;;;;;2.67;2.47;;;;;;;22.17;38.55;96376.91;6163563;28;102748;-80
2022/11/13 04:23:32;;;;;;;2.70;2.60;;;;;;;22.20;37.95;96380.94;6171720;28;106167;-80
2022/11/13 04:26:36;;;;;;;2.80;2.60;;;;;;;22.20;38.09;96383.59;6171700;28;102575;-80
2022/11/13 04:29:40;;;;;;;3.30;3.10;;;;;;;22.21;37.97;96385.19;6168353;28;105075;-81
2022/11/13 04:32:43;;;;;;;2.80;2.60;;;;;;;22.20;38.00;96379.06;6170966;28;103151;-80
2022/11/13 04:35:47;;;;;;;3.20;3.00;;;;;;;22.20;38.41;96384.41;6170711;28;103066;-80
2022/11/13 04:38:50;;;;;;;3.10;2.90;;;;;;;22.19;38.15;96377.47;6171691;28;103350;-82
2022/11/13 04:45:16;;;;;;;3.50;3.20;;;;;;;22.19;37.91;96379.34;6173094;28;102982;-81
2022/11/13 04:48:19;;;;;;;3.40;3.20;;;;;;;22.19;38.15;96374.81;6172352;28;103069;-81
2022/11/13 04:51:22;;;;;;;3.43;3.13;;;;;;;22.19;38.44;96376.69;6172318;28;103690;-81
2022/11/13 04:54:25;;;;;;;3.67;3.37;;;;;;;22.19;38.39;96382.81;6166395;28;105293;-82
2022/11/13 04:57:31;;;;;;;3.70;3.40;;;;;;;22.20;38.42;96383.59;6170374;28;102733;-81
2022/11/13 05:00:35;;;;;;;3.23;3.03;;;;;;;22.20;38.25;96379.06;6171769;28;103048;-82
2022/11/13 05:03:38;;;;;;;4.10;3.80;;;;;;;22.20;38.52;96378.25;6169535;28;103707;-82
2022/11/13 05:06:42;;;;;;;3.50;3.30;;;;;;;22.20;38.22;96380.94;6170929;28;103763;-82
2022/11/13 05:09:45;;;;;;;3.67;3.40;;;;;;;22.20;38.04;96380.94;6174347;28;103858;-82
2022/11/13 05:12:48;;;;;;;4.10;3.80;;;;;;;22.17;38.08;96376.13;6172461;28;103668;-81
2022/11/13 05:16:01;;;;;;;3.67;3.37;;;;;;;22.21;38.42;96382.53;6168063;28;103367;-82
2022/11/13 05:19:06;;;;;;;3.80;3.50;;;;;;;22.18;38.25;96386.53;6175599;28;103054;-81
2022/11/13 05:22:09;;;;;;;3.83;3.53;;;;;;;22.22;38.28;96376.91;6172560;28;102963;-81
2022/11/13 05:25:12;;;;;;;4.07;3.80;;;;;;;22.19;38.09;96384.66;6172836;28;107367;-83
2022/11/13 05:28:15;;;;;;;4.20;3.90;;;;;;;22.18;38.18;96391.88;6165277;28;103057;-82
2022/11/13 05:31:20;;;;;;;4.10;3.80;;;;;;;22.22;37.97;96381.47;6172959;28;104076;-82
2022/11/13 05:34:23;;;;;;;4.40;4.10;;;;;;;22.22;38.43;96381.47;6173360;28;102841;-81
2022/11/13 05:37:28;;;;;;;4.23;3.93;;;;;;;22.19;38.13;96390.81;6171196;28;103376;-82
2022/11/13 05:40:31;;;;;;;4.43;4.10;;;;;;;22.22;38.13;96389.44;6169983;28;103857;-82
2022/11/13 05:43:36;;;;;;;4.50;4.20;;;;;;;22.18;38.10;96391.88;6171427;28;104893;-82
2022/11/13 05:46:41;;;;;;;4.33;4.03;;;;;;;22.21;38.43;96398.53;6171739;28;103161;-82
2022/11/13 05:49:44;;;;;;;3.97;3.67;;;;;;;22.21;37.96;96393.19;6165865;28;103383;-80
2022/11/13 05:52:47;;;;;;;4.17;3.87;;;;;;;22.20;38.07;96395.06;6174206;28;103057;-81
2022/11/13 05:55:50;;;;;;;4.60;4.30;;;;;;;22.21;38.23;96399.31;6175208;28;102838;-81
2022/11/13 05:58:55;;;;;;;5.57;5.17;;;;;;;22.23;38.07;96412.38;6177987;28;103578;-81
2022/11/13 06:02:00;;;;;;;4.60;4.30;;;;;;;22.16;38.04;96399.31;6170813;28;105354;-82
2022/11/13 06:05:04;;;;;;;4.57;4.27;;;;;;;22.22;38.11;96414.25;6178430;28;106475;-81
2022/11/13 06:08:07;;;;;;;4.07;3.77;;;;;;;22.16;38.04;96403.84;6175995;28;102616;-81
2022/11/13 06:11:12;;;;;;;4.47;4.17;;;;;;;22.20;38.21;96418.25;6173847;28;104189;-82
2022/11/13 06:14:15;;;;;;;4.50;4.20;;;;;;;22.19;38.13;96414.78;6167292;28;106116;-81
2022/11/13 06:17:21;;;;;;;4.47;4.17;;;;;;;22.21;38.42;96423.31;6171750;28;102551;-81
2022/11/13 06:20:24;;;;;;;4.90;4.60;;;;;;;22.19;37.91;96414.78;6172510;28;102561;-81
2022/11/13 06:23:29;;;;;;;4.67;4.30;;;;;;;22.18;38.46;96413.19;6166649;28;103143;-81
2022/11/13 06:26:33;;;;;;;5.57;5.07;;;;;;;22.23;38.15;96413.19;6173532;28;104304;-81
2022/11/13 06:29:37;;;;;;;5.00;4.60;;;;;;;22.11;37.87;96397.47;6175722;28;107066;-81
2022/11/13 06:32:42;;;;;;;5.80;5.30;;;;;;;22.24;38.34;96421.97;6174871;28;103184;-82
2022/11/13 06:35:45;;;;;;;5.20;4.70;;;;;;;22.21;37.97;96414.53;6168510;28;106217;-79
2022/11/13 06:38:48;;;;;;;4.87;4.47;;;;;;;22.15;37.96;96407.59;6170993;28;102522;-80
2022/11/13 06:41:52;;;;;;;5.27;4.87;;;;;;;22.23;37.81;96423.03;6170551;28;103712;-81
2022/11/13 06:44:55;;;;;;;5.03;4.63;;;;;;;22.15;38.03;96396.94;6169413;28;104199;-79
2022/11/13 06:47:59;;;;;;;5.93;5.43;;;;;;;22.22;38.45;96414.25;6164568;28;107703;-80
2022/11/13 06:51:04;;;;;;;5.13;4.77;;;;;;;22.22;38.12;96408.13;6170831;28;103882;-79
2022/11/13 06:54:08;;;;;;;5.80;5.30;;;;;;;22.23;37.99;96409.72;6168650;28;103543;-80
2022/11/13 06:57:11;;;;;;;5.50;5.10;;;;;;;22.20;38.31;96400.41;6166298;28;104436;-81
2022/11/13 07:00:15;;;;;;;6.30;5.80;;;;;;;22.23;37.92;96405.19;6168942;28;104095;-82
2022/11/13 07:03:22;;;;;;;6.03;5.53;;;;;;;22.24;38.21;96398.78;6173131;28;104108;-86
2022/11/13 07:06:26;;;;;;;5.93;5.43;;;;;;;22.20;37.74;96400.41;6173355;28;103355;-82
2022/11/13 07:09:29;;;;;;;6.07;5.57;;;;;;;22.24;37.78;96406.78;6166375;28;102899;-82
2022/11/13 07:12:32;;;;;;;5.60;5.20;;;;;;;22.23;38.31;96409.72;6175337;28;102889;-83
2022/11/13 07:15:36;;;;;;;5.80;5.40;;;;;;;22.20;37.92;96408.41;6176088;28;103348;-84
2022/11/13 07:18:40;;;;;;;6.60;6.10;;;;;;;22.19;37.88;96408.66;6176483;28;103779;-84
2022/11/13 07:21:43;;;;;;;6.03;5.53;;;;;;;22.20;37.73;96410.25;6172128;28;102718;-83
2022/11/13 07:24:46;;;;;;;5.93;5.43;;;;;;;22.18;37.74;96401.72;6177658;28;102807;-84
2022/11/13 07:27:50;;;;;;;6.50;6.00;;;;;;;22.16;37.91;96406.53;6174961;28;103539;-84
2022/11/13 07:30:53;;;;;;;5.73;5.23;;;;;;;22.18;37.97;96405.22;6174740;28;103507;-84
2022/11/13 07:33:58;;;;;;;6.23;5.73;;;;;;;22.12;38.39;96403.59;6175321;28;103573;-83
2022/11/13 07:37:01;;;;;;;5.90;5.50;;;;;;;22.20;37.89;96413.72;6177049;28;105277;-83
2022/11/13 07:40:06;;;;;;;6.80;6.20;;;;;;;22.18;38.02;96417.72;6175938;28;103219;-83
2022/11/13 07:43:10;;;;;;;5.87;5.40;;;;;;;22.19;38.01;96414.00;6169716;28;103120;-84
2022/11/13 07:46:13;;;;;;;7.40;6.80;;;;;;;22.19;38.32;96411.34;6172557;28;103079;-80
2022/11/13 07:49:17;;;;;;;15.63;14.23;;;;;;;22.19;39.46;96419.34;6176005;28;104594;-83
2022/11/13 07:52:20;;;;;;;13.13;12.10;;;;;;;22.17;38.78;96422.25;6175950;28;106838;-83
2022/11/13 07:55:23;;;;;;;13.37;12.17;;;;;;;22.21;39.23;96422.53;6169751;28;102675;-84
2022/11/13 07:58:27;;;;;;;12.97;11.97;;;;;;;22.19;38.66;96424.66;6176123;28;103541;-84
2022/11/13 08:01:30;;;;;;;11.90;10.90;;;;;;;22.21;39.05;96419.84;6177981;28;103417;-83
2022/11/13 08:04:35;;;;;;;11.67;10.50;;;;;;;22.20;39.05;96418.25;6178909;28;103315;-83
2022/11/13 08:07:39;;;;;;;12.57;11.47;;;;;;;22.19;38.60;96420.13;6177041;28;104596;-83
2022/11/13 08:10:42;;;;;;;12.80;11.70;;;;;;;22.14;38.87;96414.00;6181848;28;103552;-82
2022/11/13 08:13:45;;;;;;;11.93;11.03;;;;;;;22.18;38.62;96407.03;6178690;28;103018;-83
2022/11/13 08:16:48;;;;;;;12.00;11.00;;;;;;;22.18;38.74;96418.53;6168204;28;105462;-84
2022/11/13 08:19:53;;;;;;;12.47;11.40;;;;;;;22.21;38.33;96418.00;6173753;28;104156;-83
2022/11/13 08:22:57;;;;;;;13.23;12.13;;;;;;;22.20;38.65;96419.06;6173928;28;103695;-83
2022/11/13 08:26:04;;;;;;;11.10;10.20;;;;;;;22.21;38.41;96422.53;6175566;28;103038;-84
2022/11/13 08:29:07;;;;;;;12.37;11.30;;;;;;;22.17;38.44;96410.78;6166483;28;103199;-84
2022/11/13 08:32:14;;;;;;;12.83;11.63;;;;;;;22.19;38.76;96416.66;6174699;28;105289;-82
2022/11/13 08:35:19;;;;;;;11.77;10.77;;;;;;;22.20;38.58;96420.94;6173809;28;103745;-84
2022/11/13 08:38:28;;;;;;;11.53;10.53;;;;;;;22.22;38.22;96413.44;6173132;28;103373;-84
2022/11/13 08:41:32;;;;;;;12.20;11.20;;;;;;;22.20;38.41;96421.72;6166792;28;105379;-84
2022/11/13 08:44:35;;;;;;;12.20;11.20;;;;;;;22.20;38.24;96415.59;6172013;28;103277;-83
2022/11/13 08:47:39;;;;;;;10.90;10.03;;;;;;;22.22;38.65;96427.59;6172078;28;102708;-83
2022/11/13 08:50:43;;;;;;;11.20;10.30;;;;;;;22.20;38.17;96429.72;6170093;28;103031;-83
2022/11/13 08:53:46;;;;;;;11.60;10.70;;;;;;;22.21;37.98;96433.97;6169720;28;104820;-82
2022/11/13 08:56:50;;;;;;;11.60;10.67;;;;;;;22.20;38.24;96426.25;6172834;28;104402;-83
2022/11/13 09:00:00;;;;;;;11.73;10.73;;;;;;;22.21;38.26;96430.53;6172178;28;103293;-83
2022/11/13 09:03:03;;;;;;;11.60;10.70;;;;;;;22.19;38.35;96430.00;6165545;28;102848;-83
2022/11/13 09:06:09;;;;;;;12.00;11.00;;;;;;;22.19;38.53;96438.78;6171602;28;103373;-83
2022/11/13 09:09:13;;;;;;;11.60;10.60;;;;;;;22.20;38.21;96431.59;6171450;28;103111;-84
2022/11/13 09:12:16;;;;;;;12.37;11.37;;;;;;;22.18;38.31;96434.53;6171117;28;103356;-86
2022/11/13 09:15:19;;;;;;;10.80;9.90;;;;;;;22.20;38.36;96431.59;6163801;28;104304;-83
2022/11/13 09:18:26;;;;;;;11.20;10.30;;;;;;;22.20;38.21;96431.59;6171606;28;103870;-83
2022/11/13 09:21:31;;;;;;;12.50;11.30;;;;;;;22.08;38.58;96419.34;6170526;28;105758;-85
2022/11/13 09:24:35;;;;;;;11.13;10.23;;;;;;;22.21;38.50;96436.66;6168925;28;105857;-84
2022/11/13 09:27:38;;;;;;;11.77;10.77;;;;;;;22.22;37.99;96429.44;6167845;28;103095;-85
2022/11/13 09:30:41;;;;;;;12.23;11.17;;;;;;;22.18;38.29;96413.19;6170717;28;104926;-84
2022/11/13 09:33:44;;;;;;;12.20;11.20;;;;;;;22.21;38.58;96420.66;6171155;28;104388;-83
2022/11/13 09:36:49;;;;;;;11.43;10.53;;;;;;;22.18;38.12;96413.19;6165097;28;103819;-85
2022/11/13 09:39:52;;;;;;;11.10;10.20;;;;;;;22.18;38.42;96417.72;6171895;28;105255;-84
2022/11/13 09:42:56;;;;;;;11.53;10.60;;;;;;;22.20;38.21;96418.25;6170953;28;104394;-84
2022/11/13 09:46:03;;;;;;;11.57;10.63;;;;;;;22.20;37.99;96410.25;6171293;28;103294;-84
2022/11/13 09:49:14;;;;;;;11.60;10.60;;;;;;;22.18;38.33;96413.19;6164974;28;104645;-85
2022/11/13 09:52:27;;;;;;;10.80;9.90;;;;;;;22.15;38.27;96400.38;6170996;28;102572;-85
2022/11/13 09:55:34;;;;;;;11.53;10.53;;;;;;;22.18;37.97;96401.72;6172224;28;104694;-86
2022/11/13 09:58:46;;;;;;;11.33;10.43;;;;;;;22.21;37.85;96401.19;6169067;28;104379;-85
2022/11/13 10:01:58;;;;;;;11.20;10.30;;;;;;;22.24;38.27;96400.63;6167467;28;107212;-84
2022/11/13 10:05:09;;;;;;;11.07;10.17;;;;;;;22.23;38.50;96399.03;6171628;28;105260;-84
2022/11/13 10:08:19;;;;;;;11.90;10.90;;;;;;;22.23;38.31;96388.38;6172070;28;103559;-84
2022/11/13 10:11:34;;;;;;;11.43;10.47;;;;;;;22.22;38.09;96397.44;6167203;28;103202;-85
2022/11/13 10:14:42;;;;;;;11.00;10.10;;;;;;;22.22;38.15;96392.13;6173121;28;105588;-85
2022/11/13 10:17:51;;;;;;;11.80;10.80;;;;;;;22.23;37.90;96394.50;6171929;28;104128;-84
2022/11/13 10:21:10;;;;;;;11.33;10.37;;;;;;;22.22;37.85;96386.78;6171774;28;103059;-84
2022/11/13 10:24:22;;;;;;;10.80;9.90;;;;;;;22.27;37.86;96392.09;6169638;28;104433;-84
2022/11/13 10:27:25;;;;;;;11.80;10.80;;;;;;;22.28;38.22;96385.69;6171141;28;103535;-84
2022/11/13 10:30:29;;;;;;;12.30;11.17;;;;;;;22.27;37.93;96387.56;6172972;28;106496;-85
2022/11/13 10:33:32;;;;;;;10.87;9.97;;;;;;;22.29;38.19;96387.28;6166909;28;106564;-86
2022/11/13 10:36:44;;;;;;;10.77;9.90;;;;;;;22.27;37.90;96378.75;6173882;28;106473;-86
2022/11/13 10:39:49;;;;;;;10.93;10.00;;;;;;;22.29;38.17;96373.94;6176883;28;103375;-82
2022/11/13 10:42:52;;;;;;;11.17;10.27;;;;;;;22.33;38.16;96377.66;6173902;28;102607;-82
2022/11/13 10:45:57;;;;;;;11.57;10.63;;;;;;;22.31;38.08;96361.13;6167133;28;105836;-82
2022/11/13 10:49:27;;;;;;;11.20;10.20;;;;;;;22.33;37.82;96364.31;6177434;28;104218;-82
2022/11/13 10:52:32;;;;;;;11.43;10.50;;;;;;;22.34;37.73;96363.25;6176860;28;102988;-82
2022/11/13 10:55:40;;;;;;;11.20;10.30;;;;;;;22.31;38.09;96347.78;6171503;28;107076;-82
2022/11/13 10:58:43;;;;;;;11.33;10.30;;;;;;;22.33;38.26;96357.13;6181953;28;103712;-82
2022/11/13 11:01:48;;;;;;;10.63;9.83;;;;;;;22.34;38.07;96352.56;6186319;28;103670;-82
2022/11/13 11:05:02;;;;;;;11.57;10.60;;;;;;;22.35;37.99;96356.88;6185610;28;102518;-81
2022/11/13 11:08:11;;;;;;;11.30;10.37;;;;;;;22.28;38.08;96343.00;6180006;28;102681;-80
2022/11/13 11:14:44;;;;;;;11.10;10.20;;;;;;;22.31;37.89;96340.59;6185043;28;103181;-83
2022/11/13 11:17:52;;;;;;;12.10;11.10;;;;;;;22.31;38.60;96339.78;6176546;28;104378;-82
2022/11/13 11:20:58;;;;;;;12.83;11.73;;;;;;;22.37;38.32;96344.06;6172118;28;104309;-81
2022/11/13 11:24:07;;;;;;;16.40;13.93;;;;;;;22.34;39.18;96340.03;6170608;28;107445;-80
2022/11/13 11:27:17;;;;;;;15.23;13.73;;;;;;;22.31;39.92;96337.94;6171852;28;103598;-80
2022/11/13 11:30:22;;;;;;;16.17;14.67;;;;;;;22.29;40.46;96344.59;6180664;28;103978;-81
2022/11/13 11:33:33;;;;;;;17.33;15.60;;;;;;;22.21;40.44;96331.88;6183253;28;103416;-84
2022/11/13 11:36:44;;;;;;;16.27;14.70;;;;;;;22.17;40.34;96320.94;6180321;28;102973;-79
2022/11/13 11:39:51;;;;;;;15.73;14.43;;;;;;;22.19;40.07;96337.47;6179123;28;102931;-79
2022/11/13 11:43:05;;;;;;;16.40;14.93;;;;;;;22.14;40.55;96326.81;6176192;28;103351;-80
2022/11/13 11:46:13;;;;;;;16.13;14.50;;;;;;;22.19;41.39;96328.69;6185785;28;103848;-81
2022/11/13 11:49:16;;;;;;;15.60;14.30;;;;;;;22.21;41.14;96323.88;6177708;28;103345;-79
2022/11/13 11:52:37;;;;;;;17.27;15.57;;;;;;;22.20;41.43;96320.41;6156678;28;103349;-80
2022/11/13 11:55:58;;;;;;;17.60;15.90;;;;;;;22.17;41.64;96314.81;6170500;28;103404;-81
2022/11/13 11:59:45;;;;;;;15.83;14.33;;;;;;;22.17;41.67;96317.47;6180635;28;106154;-79
2022/11/13 12:03:26;;;;;;;16.17;14.57;;;;;;;22.16;42.49;96313.22;6183840;28;102586;-80
2022/11/13 12:06:45;;;;;;;16.20;14.80;;;;;;;22.06;42.54;96296.22;6180692;28;103102;-80
2022/11/13 12:09:57;;;;;;;19.60;15.37;;;;;;;22.04;42.27;96311.69;6183251;28;105348;-80
2022/11/13 12:13:18;;;;;;;17.23;15.70;;;;;;;22.02;42.05;96313.03;6184506;28;102981;-79
2022/11/13 12:16:30;;;;;;;22.87;15.27;;;;;;;22.06;42.78;96311.41;6177908;28;102962;-79
2022/11/13 12:19:45;;;;;;;17.30;15.53;;;;;;;22.11;43.29;96306.84;6182567;28;103248;-80
2022/11/13 12:22:58;;;;;;;17.03;15.43;;;;;;;22.14;43.59;96304.69;6169035;28;102998;-79
2022/11/13 12:26:10;;;;;;;19.40;15.50;;;;;;;22.12;43.89;96302.31;6155609;28;103698;-79
2022/11/13 12:29:36;;;;;;;17.43;15.90;;;;;;;22.22;43.23;96298.78;6162428;28;103220;-78
2022/11/13 12:32:55;;;;;;;17.20;15.40;;;;;;;22.26;43.92;96299.84;6170001;28;103928;-81
2022/11/13 12:35:59;;;;;;;16.27;14.70;;;;;;;22.29;44.34;96299.28;6169717;28;102759;-79
2022/11/13 12:39:13;;;;;;;16.07;14.50;;;;;;;22.18;44.63;96287.88;6164083;28;106473;-79
2022/11/13 12:42:22;;;;;;;16.13;14.73;;;;;;;22.18;44.55;96289.72;6169724;28;105383;-79
2022/11/13 12:45:34;;;;;;;15.83;14.33;;;;;;;22.19;44.48;96289.47;6170249;28;104436;-80
2022/11/13 12:48:41;;;;;;;16.37;14.80;;;;;;;22.20;44.58;96298.28;6169168;28;103084;-78
2022/11/13 12:51:55;;;;;;;16.77;15.27;;;;;;;22.17;44.33;96296.94;6163841;28;103309;-78
2022/11/13 12:55:08;;;;;;;16.23;14.83;;;;;;;22.16;44.66;96297.22;6170027;28;103637;-78
2022/11/13 12:58:19;;;;;;;16.37;14.47;;;;;;;22.14;44.23;96296.69;6169793;28;103527;-78
2022/11/13 13:01:24;;;;;;;16.47;14.77;;;;;;;22.06;44.58;96293.53;6164567;28;106466;-82
2022/11/13 13:04:46;;;;;;;15.87;14.47;;;;;;;22.04;44.77;96287.69;6162066;28;104250;-79
2022/11/13 13:08:22;;;;;;;16.07;14.53;;;;;;;22.07;44.88;96299.66;6160673;28;106137;-81
2022/11/13 13:11:36;;;;;;;16.50;13.50;;;;;;;22.03;44.76;96291.44;6174374;28;103884;-81
2022/11/13 13:15:06;;;;;;;15.47;14.17;;;;;;;22.01;44.63;96285.59;6168413;28;102724;-81
2022/11/13 13:18:11;;;;;;;16.00;14.40;;;;;;;22.01;44.96;96290.09;6173495;28;104274;-80
2022/11/13 13:21:18;;;;;;;15.67;14.27;;;;;;;22.01;44.68;96284.75;6174229;28;103185;-82
2022/11/13 13:24:31;;;;;;;14.47;13.07;;;;;;;21.94;44.83;96281.59;6168408;28;103014;-82
2022/11/13 13:27:37;;;;;;;15.10;13.67;;;;;;;21.98;44.55;96287.97;6172953;28;102658;-81
2022/11/13 13:30:54;;;;;;;14.03;12.70;;;;;;;21.95;44.49;96292.00;6172292;28;103011;-82
2022/11/13 13:34:14;;;;;;;15.07;13.70;;;;;;;21.97;44.98;96284.50;6174462;28;102937;-82
2022/11/13 13:37:31;;;;;;;15.23;13.73;;;;;;;21.87;44.69;96268.59;6175821;28;102766;-81
2022/11/13 13:40:39;;;;;;;14.23;12.83;;;;;;;21.95;44.96;96275.19;6180961;28;102498;-83
2022/11/13 13:43:58;;;;;;;14.33;12.83;;;;;;;21.91;44.70;96263.50;6182524;28;102856;-82
2022/11/13 13:47:05;;;;;;;14.70;13.23;;;;;;;21.88;44.87;96264.84;6181083;28;105155;-82
2022/11/13 13:50:14;;;;;;;14.30;12.90;;;;;;;21.93;45.03;96267.47;6179722;28;104091;-82
2022/11/13 13:53:22;;;;;;;14.50;13.30;;;;;;;21.96;45.13;96271.47;6181114;28;102898;-81
2022/11/13 13:56:27;;;;;;;14.47;13.07;;;;;;;21.96;44.83;96268.78;6181476;28;103446;-81
2022/11/13 13:59:33;;;;;;;14.40;13.07;;;;;;;21.96;45.08;96266.94;6175726;28;103067;-80
2022/11/13 14:02:46;;;;;;;13.90;12.60;;;;;;;21.93;45.09;96270.16;6167170;28;103070;-81
2022/11/13 14:05:49;;;;;;;13.33;12.13;;;;;;;21.85;44.89;96254.75;6156954;28;102725;-81
2022/11/13 14:08:54;;;;;;;13.57;12.37;;;;;;;21.88;45.04;96262.19;6154956;28;105292;-81
2022/11/13 14:11:59;;;;;;;13.07;11.90;;;;;;;21.90;45.08;96259.25;6143260;28;103842;-82
2022/11/13 14:15:18;;;;;;;14.10;12.80;;;;;;;21.88;44.93;96262.19;6149348;28;103181;-82
2022/11/13 14:18:22;;;;;;;13.33;12.13;;;;;;;21.91;45.39;96263.50;6135589;28;103047;-82
2022/11/13 14:21:25;;;;;;;13.30;12.20;;;;;;;21.94;45.19;96258.41;6148946;28;104217;-82
2022/11/13 14:24:33;;;;;;;12.80;11.70;;;;;;;21.88;44.96;96254.19;6149608;28;105132;-83